Terminal Aerodrome Forecast
Issued by NWS

Home | Current Version | Previous Version | Text Only | Print | Product List | Glossary On
Versions: 1 2 3 4 5 6 7 8 9 10 11 12
000
FTUS43 KMPX 271100
TAFRWF
TAF
KRWF 271139Z 2712/2812 32010KT 2SM -SN BR SCT010 OVC020
     FM271230 32010KT 4SM -SN BR BKN020 OVC040
     FM271500 30010KT P6SM SCT020 BKN040
     FM271800 28010KT P6SM SKC
     FM280200 24007KT P6SM BKN200
     FM281000 28005KT P6SM BKN120=

USA.gov is the U.S. government's official web portal to all federal, state and local government web resources and services.